sensor_id;sensor_type;location;lat;lon;timestamp;temperature;humidity
40123;DHT22;25832;45.490;4.912;2024-03-22T00:00:55;10.20;99.90
40123;DHT22;25832;45.490;4.912;2024-03-22T00:03:21;10.20;99.90
40123;DHT22;25832;45.490;4.912;2024-03-22T00:05:47;10.10;99.90
40123;DHT22;25832;45.490;4.912;2024-03-22T00:08:13;10.10;99.90
40123;DHT22;25832;45.490;4.912;2024-03-22T00:10:38;10.00;99.90
40123;DHT22;25832;45.490;4.912;2024-03-22T00:13:04;10.00;99.90
40123;DHT22;25832;45.490;4.912;2024-03-22T00:15:30;9.90;99.90
40123;DHT22;25832;45.490;4.912;2024-03-22T00:17:55;9.90;99.90
40123;DHT22;25832;45.490;4.912;2024-03-22T00:20:21;9.80;99.90
40123;DHT22;25832;45.490;4.912;2024-03-22T00:22:46;9.80;99.90
40123;DHT22;25832;45.490;4.912;2024-03-22T00:25:12;9.90;99.90
40123;DHT22;25832;45.490;4.912;2024-03-22T00:27:38;9.80;99.90
40123;DHT22;25832;45.490;4.912;2024-03-22T00:30:04;9.80;99.90
40123;DHT22;25832;45.490;4.912;2024-03-22T00:32:29;9.70;99.90
40123;DHT22;25832;45.490;4.912;2024-03-22T00:34:55;9.70;99.90
40123;DHT22;25832;45.490;4.912;2024-03-22T00:37:21;9.80;99.90
40123;DHT22;25832;45.490;4.912;2024-03-22T00:39:46;9.80;99.90
40123;DHT22;25832;45.490;4.912;2024-03-22T00:42:12;9.80;99.90
40123;DHT22;25832;45.490;4.912;2024-03-22T00:44:37;9.90;99.90
40123;DHT22;25832;45.490;4.912;2024-03-22T00:47:03;9.90;99.90
40123;DHT22;25832;45.490;4.912;2024-03-22T00:49:29;9.90;99.90
40123;DHT22;25832;45.490;4.912;2024-03-22T00:51:55;9.80;99.90
40123;DHT22;25832;45.490;4.912;2024-03-22T00:54:22;9.80;99.90
40123;DHT22;25832;45.490;4.912;2024-03-22T00:56:47;9.70;99.90
40123;DHT22;25832;45.490;4.912;2024-03-22T00:59:13;9.70;99.90
40123;DHT22;25832;45.490;4.912;2024-03-22T01:01:39;9.80;99.90
40123;DHT22;25832;45.490;4.912;2024-03-22T01:04:04;9.80;99.90
40123;DHT22;25832;45.490;4.912;2024-03-22T01:06:30;9.70;99.90
40123;DHT22;25832;45.490;4.912;2024-03-22T01:08:55;9.70;99.90
40123;DHT22;25832;45.490;4.912;2024-03-22T01:11:21;9.70;99.90
40123;DHT22;25832;45.490;4.912;2024-03-22T01:13:47;9.70;99.90
40123;DHT22;25832;45.490;4.912;2024-03-22T01:16:12;9.70;99.90
40123;DHT22;25832;45.490;4.912;2024-03-22T01:18:38;9.80;99.90
40123;DHT22;25832;45.490;4.912;2024-03-22T01:21:04;9.70;99.90
40123;DHT22;25832;45.490;4.912;2024-03-22T01:23:31;9.70;99.90
40123;DHT22;25832;45.490;4.912;2024-03-22T01:25:56;9.80;99.90
40123;DHT22;25832;45.490;4.912;2024-03-22T01:28:22;9.80;99.90
40123;DHT22;25832;45.490;4.912;2024-03-22T01:30:48;9.80;99.90
40123;DHT22;25832;45.490;4.912;2024-03-22T01:33:14;9.80;99.90
40123;DHT22;25832;45.490;4.912;2024-03-22T01:35:39;9.80;99.90
40123;DHT22;25832;45.490;4.912;2024-03-22T01:38:05;9.90;99.90
40123;DHT22;25832;45.490;4.912;2024-03-22T01:40:31;9.90;99.90
40123;DHT22;25832;45.490;4.912;2024-03-22T01:42:57;10.00;99.90
40123;DHT22;25832;45.490;4.912;2024-03-22T01:45:23;10.00;99.90
40123;DHT22;25832;45.490;4.912;2024-03-22T01:47:51;10.00;99.90
40123;DHT22;25832;45.490;4.912;2024-03-22T01:50:18;10.00;99.90
40123;DHT22;25832;45.490;4.912;2024-03-22T01:52:43;10.00;99.90
40123;DHT22;25832;45.490;4.912;2024-03-22T01:55:09;10.00;99.90
40123;DHT22;25832;45.490;4.912;2024-03-22T01:57:36;9.90;99.90
40123;DHT22;25832;45.490;4.912;2024-03-22T02:00:01;9.90;99.90
40123;DHT22;25832;45.490;4.912;2024-03-22T02:02:27;9.80;99.90
40123;DHT22;25832;45.490;4.912;2024-03-22T02:04:52;9.80;99.90
40123;DHT22;25832;45.490;4.912;2024-03-22T02:07:18;9.70;99.90
40123;DHT22;25832;45.490;4.912;2024-03-22T02:09:44;9.70;99.90
40123;DHT22;25832;45.490;4.912;2024-03-22T02:12:10;9.70;99.90
40123;DHT22;25832;45.490;4.912;2024-03-22T02:14:36;9.70;99.90
40123;DHT22;25832;45.490;4.912;2024-03-22T02:17:02;9.70;99.90
40123;DHT22;25832;45.490;4.912;2024-03-22T02:19:28;9.70;99.90
40123;DHT22;25832;45.490;4.912;2024-03-22T02:21:53;9.60;99.90
40123;DHT22;25832;45.490;4.912;2024-03-22T02:24:19;9.60;99.90
40123;DHT22;25832;45.490;4.912;2024-03-22T02:26:44;9.50;99.90
40123;DHT22;25832;45.490;4.912;2024-03-22T02:29:10;9.50;99.90
40123;DHT22;25832;45.490;4.912;2024-03-22T02:31:36;9.50;99.90
40123;DHT22;25832;45.490;4.912;2024-03-22T02:34:01;9.50;99.90
40123;DHT22;25832;45.490;4.912;2024-03-22T02:36:28;9.50;99.90
40123;DHT22;25832;45.490;4.912;2024-03-22T02:38:53;9.50;99.90
40123;DHT22;25832;45.490;4.912;2024-03-22T02:41:19;9.60;99.90
40123;DHT22;25832;45.490;4.912;2024-03-22T02:43:45;9.50;99.90
40123;DHT22;25832;45.490;4.912;2024-03-22T02:46:11;9.60;99.90
40123;DHT22;25832;45.490;4.912;2024-03-22T02:48:36;9.70;99.90
40123;DHT22;25832;45.490;4.912;2024-03-22T02:51:02;9.70;99.90
40123;DHT22;25832;45.490;4.912;2024-03-22T02:53:28;9.80;99.90
40123;DHT22;25832;45.490;4.912;2024-03-22T02:55:54;9.80;99.90
40123;DHT22;25832;45.490;4.912;2024-03-22T02:58:20;9.80;99.90
40123;DHT22;25832;45.490;4.912;2024-03-22T03:00:46;9.70;99.90
40123;DHT22;25832;45.490;4.912;2024-03-22T03:03:12;9.70;99.90
40123;DHT22;25832;45.490;4.912;2024-03-22T03:05:38;9.60;99.90
40123;DHT22;25832;45.490;4.912;2024-03-22T03:08:04;9.60;99.90
40123;DHT22;25832;45.490;4.912;2024-03-22T03:10:29;9.60;99.90
40123;DHT22;25832;45.490;4.912;2024-03-22T03:12:55;9.50;99.90
40123;DHT22;25832;45.490;4.912;2024-03-22T03:15:21;9.50;99.90
40123;DHT22;25832;45.490;4.912;2024-03-22T03:17:47;9.50;99.90
40123;DHT22;25832;45.490;4.912;2024-03-22T03:20:12;9.50;99.90
40123;DHT22;25832;45.490;4.912;2024-03-22T03:22:40;9.50;99.90
40123;DHT22;25832;45.490;4.912;2024-03-22T03:25:06;9.50;99.90
40123;DHT22;25832;45.490;4.912;2024-03-22T03:27:32;9.50;99.90
40123;DHT22;25832;45.490;4.912;2024-03-22T03:29:58;9.50;99.90
40123;DHT22;25832;45.490;4.912;2024-03-22T03:32:23;9.50;99.90
40123;DHT22;25832;45.490;4.912;2024-03-22T03:34:50;9.50;99.90
40123;DHT22;25832;45.490;4.912;2024-03-22T03:37:16;9.60;99.90
40123;DHT22;25832;45.490;4.912;2024-03-22T03:39:41;9.50;99.90
40123;DHT22;25832;45.490;4.912;2024-03-22T03:42:07;9.50;99.90
40123;DHT22;25832;45.490;4.912;2024-03-22T03:44:33;9.50;99.90
40123;DHT22;25832;45.490;4.912;2024-03-22T03:47:00;9.50;99.90
40123;DHT22;25832;45.490;4.912;2024-03-22T03:49:26;9.60;99.90
40123;DHT22;25832;45.490;4.912;2024-03-22T03:51:51;9.60;99.90
40123;DHT22;25832;45.490;4.912;2024-03-22T03:54:17;9.70;99.90
40123;DHT22;25832;45.490;4.912;2024-03-22T03:56:42;9.70;99.90
40123;DHT22;25832;45.490;4.912;2024-03-22T03:59:08;9.70;99.90
40123;DHT22;25832;45.490;4.912;2024-03-22T04:01:34;9.80;99.90
40123;DHT22;25832;45.490;4.912;2024-03-22T04:03:59;9.80;99.90
40123;DHT22;25832;45.490;4.912;2024-03-22T04:06:25;10.00;99.90
40123;DHT22;25832;45.490;4.912;2024-03-22T04:08:50;10.20;99.90
40123;DHT22;25832;45.490;4.912;2024-03-22T04:11:16;10.40;99.90
40123;DHT22;25832;45.490;4.912;2024-03-22T04:13:42;10.60;99.90
40123;DHT22;25832;45.490;4.912;2024-03-22T04:16:08;10.70;99.90
40123;DHT22;25832;45.490;4.912;2024-03-22T04:18:33;10.70;99.90
40123;DHT22;25832;45.490;4.912;2024-03-22T04:20:59;10.80;99.90
40123;DHT22;25832;45.490;4.912;2024-03-22T04:23:25;10.80;99.90
40123;DHT22;25832;45.490;4.912;2024-03-22T04:25:56;10.80;99.90
40123;DHT22;25832;45.490;4.912;2024-03-22T04:28:22;10.80;99.90
40123;DHT22;25832;45.490;4.912;2024-03-22T04:31:06;10.80;99.90
40123;DHT22;25832;45.490;4.912;2024-03-22T04:33:37;10.80;99.90
40123;DHT22;25832;45.490;4.912;2024-03-22T04:36:03;10.80;99.90
40123;DHT22;25832;45.490;4.912;2024-03-22T04:38:29;10.80;99.90
40123;DHT22;25832;45.490;4.912;2024-03-22T04:40:56;10.80;99.90
40123;DHT22;25832;45.490;4.912;2024-03-22T04:43:23;10.80;99.90
40123;DHT22;25832;45.490;4.912;2024-03-22T04:45:49;10.70;99.90
40123;DHT22;25832;45.490;4.912;2024-03-22T04:48:23;10.60;99.90
40123;DHT22;25832;45.490;4.912;2024-03-22T04:50:50;10.50;99.90
40123;DHT22;25832;45.490;4.912;2024-03-22T04:53:17;10.50;99.90
40123;DHT22;25832;45.490;4.912;2024-03-22T04:55:43;10.40;99.90
40123;DHT22;25832;45.490;4.912;2024-03-22T04:58:14;10.40;99.90
40123;DHT22;25832;45.490;4.912;2024-03-22T05:00:41;10.30;99.90
40123;DHT22;25832;45.490;4.912;2024-03-22T05:03:06;10.20;99.90
40123;DHT22;25832;45.490;4.912;2024-03-22T05:05:33;10.10;99.90
40123;DHT22;25832;45.490;4.912;2024-03-22T05:07:59;10.00;99.90
40123;DHT22;25832;45.490;4.912;2024-03-22T05:10:24;9.90;99.90
40123;DHT22;25832;45.490;4.912;2024-03-22T05:12:50;9.80;99.90
40123;DHT22;25832;45.490;4.912;2024-03-22T05:15:16;9.70;99.90
40123;DHT22;25832;45.490;4.912;2024-03-22T05:17:41;9.60;99.90
40123;DHT22;25832;45.490;4.912;2024-03-22T05:20:08;9.60;99.90
40123;DHT22;25832;45.490;4.912;2024-03-22T05:22:39;9.50;99.90
40123;DHT22;25832;45.490;4.912;2024-03-22T05:25:05;9.50;99.90
40123;DHT22;25832;45.490;4.912;2024-03-22T05:27:31;9.50;99.90
40123;DHT22;25832;45.490;4.912;2024-03-22T05:29:58;9.50;99.90
40123;DHT22;25832;45.490;4.912;2024-03-22T05:32:24;9.50;99.90
40123;DHT22;25832;45.490;4.912;2024-03-22T05:34:51;9.50;99.90
40123;DHT22;25832;45.490;4.912;2024-03-22T05:37:16;9.50;99.90
40123;DHT22;25832;45.490;4.912;2024-03-22T05:39:42;9.50;99.90
40123;DHT22;25832;45.490;4.912;2024-03-22T05:42:08;9.50;99.90
40123;DHT22;25832;45.490;4.912;2024-03-22T05:44:34;9.50;99.90
40123;DHT22;25832;45.490;4.912;2024-03-22T05:46:59;9.40;99.90
40123;DHT22;25832;45.490;4.912;2024-03-22T05:49:25;9.50;99.90
40123;DHT22;25832;45.490;4.912;2024-03-22T05:51:51;9.40;99.90
40123;DHT22;25832;45.490;4.912;2024-03-22T05:54:16;9.40;99.90
40123;DHT22;25832;45.490;4.912;2024-03-22T05:56:42;9.40;99.90
40123;DHT22;25832;45.490;4.912;2024-03-22T05:59:08;9.40;99.90
40123;DHT22;25832;45.490;4.912;2024-03-22T06:01:33;9.30;99.90
40123;DHT22;25832;45.490;4.912;2024-03-22T06:03:59;9.30;99.90
40123;DHT22;25832;45.490;4.912;2024-03-22T06:06:25;9.20;99.90
40123;DHT22;25832;45.490;4.912;2024-03-22T06:08:54;9.20;99.90
40123;DHT22;25832;45.490;4.912;2024-03-22T06:11:22;9.20;99.90
40123;DHT22;25832;45.490;4.912;2024-03-22T06:13:48;9.20;99.90
40123;DHT22;25832;45.490;4.912;2024-03-22T06:16:14;9.30;99.90
40123;DHT22;25832;45.490;4.912;2024-03-22T06:18:40;9.30;99.90
40123;DHT22;25832;45.490;4.912;2024-03-22T06:21:05;9.40;99.90
40123;DHT22;25832;45.490;4.912;2024-03-22T06:23:32;9.40;99.90
40123;DHT22;25832;45.490;4.912;2024-03-22T06:25:58;9.50;99.90
40123;DHT22;25832;45.490;4.912;2024-03-22T06:28:25;9.50;99.90
40123;DHT22;25832;45.490;4.912;2024-03-22T06:30:50;9.60;99.90
40123;DHT22;25832;45.490;4.912;2024-03-22T06:33:16;9.70;99.90
40123;DHT22;25832;45.490;4.912;2024-03-22T06:35:42;9.80;99.90
40123;DHT22;25832;45.490;4.912;2024-03-22T06:38:08;9.90;99.90
40123;DHT22;25832;45.490;4.912;2024-03-22T06:40:34;9.90;99.90
40123;DHT22;25832;45.490;4.912;2024-03-22T06:43:00;10.00;99.90
40123;DHT22;25832;45.490;4.912;2024-03-22T06:45:26;10.10;99.90
40123;DHT22;25832;45.490;4.912;2024-03-22T06:47:52;10.20;99.90
40123;DHT22;25832;45.490;4.912;2024-03-22T06:50:17;10.30;99.90
40123;DHT22;25832;45.490;4.912;2024-03-22T06:52:43;10.40;99.90
40123;DHT22;25832;45.490;4.912;2024-03-22T06:55:09;10.40;99.90
40123;DHT22;25832;45.490;4.912;2024-03-22T06:57:37;10.50;99.90
40123;DHT22;25832;45.490;4.912;2024-03-22T07:00:02;10.60;99.90
40123;DHT22;25832;45.490;4.912;2024-03-22T07:02:28;10.80;99.90
40123;DHT22;25832;45.490;4.912;2024-03-22T07:04:54;10.90;99.90
40123;DHT22;25832;45.490;4.912;2024-03-22T07:07:20;11.10;99.90
40123;DHT22;25832;45.490;4.912;2024-03-22T07:09:45;11.20;99.90
40123;DHT22;25832;45.490;4.912;2024-03-22T07:12:13;11.40;99.90
40123;DHT22;25832;45.490;4.912;2024-03-22T07:14:38;11.50;99.90
40123;DHT22;25832;45.490;4.912;2024-03-22T07:17:05;11.70;99.90
40123;DHT22;25832;45.490;4.912;2024-03-22T07:19:31;11.90;99.90
40123;DHT22;25832;45.490;4.912;2024-03-22T07:21:58;12.20;99.90
40123;DHT22;25832;45.490;4.912;2024-03-22T07:24:25;12.60;99.90
40123;DHT22;25832;45.490;4.912;2024-03-22T07:26:51;13.10;99.90
40123;DHT22;25832;45.490;4.912;2024-03-22T07:29:17;13.60;99.90
40123;DHT22;25832;45.490;4.912;2024-03-22T07:31:42;14.00;99.90
40123;DHT22;25832;45.490;4.912;2024-03-22T07:34:08;14.40;99.90
40123;DHT22;25832;45.490;4.912;2024-03-22T07:36:38;14.70;99.90
40123;DHT22;25832;45.490;4.912;2024-03-22T07:39:03;15.00;99.90
40123;DHT22;25832;45.490;4.912;2024-03-22T07:41:32;15.20;99.90
40123;DHT22;25832;45.490;4.912;2024-03-22T07:44:01;15.40;99.90
40123;DHT22;25832;45.490;4.912;2024-03-22T07:46:27;15.50;99.90
40123;DHT22;25832;45.490;4.912;2024-03-22T07:48:53;15.60;99.90
40123;DHT22;25832;45.490;4.912;2024-03-22T07:51:22;15.50;99.90
40123;DHT22;25832;45.490;4.912;2024-03-22T07:53:47;15.40;99.90
40123;DHT22;25832;45.490;4.912;2024-03-22T07:56:13;15.20;99.90
40123;DHT22;25832;45.490;4.912;2024-03-22T07:58:41;15.10;99.90
40123;DHT22;25832;45.490;4.912;2024-03-22T08:01:06;14.90;99.90
40123;DHT22;25832;45.490;4.912;2024-03-22T08:03:32;14.80;99.90
40123;DHT22;25832;45.490;4.912;2024-03-22T08:05:58;14.70;99.90
40123;DHT22;25832;45.490;4.912;2024-03-22T08:08:24;14.70;99.90
40123;DHT22;25832;45.490;4.912;2024-03-22T08:10:49;14.60;99.90
40123;DHT22;25832;45.490;4.912;2024-03-22T08:13:15;14.60;99.90
40123;DHT22;25832;45.490;4.912;2024-03-22T08:15:41;14.60;99.90
40123;DHT22;25832;45.490;4.912;2024-03-22T08:18:09;14.60;99.90
40123;DHT22;25832;45.490;4.912;2024-03-22T08:20:34;14.60;99.90
40123;DHT22;25832;45.490;4.912;2024-03-22T08:23:00;14.70;99.90
40123;DHT22;25832;45.490;4.912;2024-03-22T08:25:26;14.80;99.90
40123;DHT22;25832;45.490;4.912;2024-03-22T08:27:52;15.00;99.90
40123;DHT22;25832;45.490;4.912;2024-03-22T08:30:21;15.10;99.90
40123;DHT22;25832;45.490;4.912;2024-03-22T08:32:47;15.30;99.90
40123;DHT22;25832;45.490;4.912;2024-03-22T08:35:13;15.40;99.90
40123;DHT22;25832;45.490;4.912;2024-03-22T08:37:39;15.50;99.90
40123;DHT22;25832;45.490;4.912;2024-03-22T08:40:05;15.50;99.90
40123;DHT22;25832;45.490;4.912;2024-03-22T08:42:30;15.60;99.90
40123;DHT22;25832;45.490;4.912;2024-03-22T08:44:56;15.60;99.90
40123;DHT22;25832;45.490;4.912;2024-03-22T08:47:22;15.60;99.90
40123;DHT22;25832;45.490;4.912;2024-03-22T08:49:48;15.60;99.90
40123;DHT22;25832;45.490;4.912;2024-03-22T08:52:14;15.60;99.90
40123;DHT22;25832;45.490;4.912;2024-03-22T08:54:40;15.50;99.90
40123;DHT22;25832;45.490;4.912;2024-03-22T08:57:06;15.40;99.90
40123;DHT22;25832;45.490;4.912;2024-03-22T08:59:32;15.30;99.90
40123;DHT22;25832;45.490;4.912;2024-03-22T09:01:58;15.20;99.90
40123;DHT22;25832;45.490;4.912;2024-03-22T09:04:25;15.30;99.90
40123;DHT22;25832;45.490;4.912;2024-03-22T09:06:50;15.40;99.90
40123;DHT22;25832;45.490;4.912;2024-03-22T09:09:16;15.40;99.90
40123;DHT22;25832;45.490;4.912;2024-03-22T09:11:43;15.50;99.90
40123;DHT22;25832;45.490;4.912;2024-03-22T09:14:08;15.70;99.90
40123;DHT22;25832;45.490;4.912;2024-03-22T09:16:34;15.90;99.90
40123;DHT22;25832;45.490;4.912;2024-03-22T09:19:00;16.20;99.90
40123;DHT22;25832;45.490;4.912;2024-03-22T09:21:25;16.30;99.90
40123;DHT22;25832;45.490;4.912;2024-03-22T09:23:51;16.60;99.90
40123;DHT22;25832;45.490;4.912;2024-03-22T09:26:17;16.70;99.90
40123;DHT22;25832;45.490;4.912;2024-03-22T09:28:45;16.80;99.90
40123;DHT22;25832;45.490;4.912;2024-03-22T09:31:11;17.10;99.90
40123;DHT22;25832;45.490;4.912;2024-03-22T09:33:36;17.20;99.90
40123;DHT22;25832;45.490;4.912;2024-03-22T09:36:03;17.30;99.90
40123;DHT22;25832;45.490;4.912;2024-03-22T09:38:28;17.50;99.90
40123;DHT22;25832;45.490;4.912;2024-03-22T09:40:54;17.60;99.90
40123;DHT22;25832;45.490;4.912;2024-03-22T09:43:22;17.80;99.90
40123;DHT22;25832;45.490;4.912;2024-03-22T09:45:49;17.90;99.90
40123;DHT22;25832;45.490;4.912;2024-03-22T09:48:17;17.90;99.90
40123;DHT22;25832;45.490;4.912;2024-03-22T09:50:45;18.00;99.70
40123;DHT22;25832;45.490;4.912;2024-03-22T09:53:12;18.00;99.60
40123;DHT22;25832;45.490;4.912;2024-03-22T09:55:39;18.10;99.50
40123;DHT22;25832;45.490;4.912;2024-03-22T09:58:09;18.30;98.30
40123;DHT22;25832;45.490;4.912;2024-03-22T10:00:35;18.50;97.80
40123;DHT22;25832;45.490;4.912;2024-03-22T10:03:00;18.60;97.30
40123;DHT22;25832;45.490;4.912;2024-03-22T10:05:26;18.70;97.40
40123;DHT22;25832;45.490;4.912;2024-03-22T10:07:53;18.80;97.90
40123;DHT22;25832;45.490;4.912;2024-03-22T10:10:19;18.80;96.90
40123;DHT22;25832;45.490;4.912;2024-03-22T10:12:44;18.90;97.30
40123;DHT22;25832;45.490;4.912;2024-03-22T10:15:10;18.90;99.20
40123;DHT22;25832;45.490;4.912;2024-03-22T10:17:38;19.00;96.60
40123;DHT22;25832;45.490;4.912;2024-03-22T10:20:05;19.10;97.80
40123;DHT22;25832;45.490;4.912;2024-03-22T10:22:38;19.20;98.30
40123;DHT22;25832;45.490;4.912;2024-03-22T10:25:07;19.20;96.60
40123;DHT22;25832;45.490;4.912;2024-03-22T10:27:32;19.30;96.50
40123;DHT22;25832;45.490;4.912;2024-03-22T10:29:58;19.10;96.00
40123;DHT22;25832;45.490;4.912;2024-03-22T10:32:24;19.00;97.50
40123;DHT22;25832;45.490;4.912;2024-03-22T10:34:50;18.90;96.40
40123;DHT22;25832;45.490;4.912;2024-03-22T10:37:16;19.10;97.40
40123;DHT22;25832;45.490;4.912;2024-03-22T10:39:43;19.20;98.10
40123;DHT22;25832;45.490;4.912;2024-03-22T10:42:12;19.30;97.30
40123;DHT22;25832;45.490;4.912;2024-03-22T10:44:39;19.40;97.90
40123;DHT22;25832;45.490;4.912;2024-03-22T10:47:05;19.20;96.80
40123;DHT22;25832;45.490;4.912;2024-03-22T10:49:36;19.10;96.50
40123;DHT22;25832;45.490;4.912;2024-03-22T10:52:03;19.10;96.90
40123;DHT22;25832;45.490;4.912;2024-03-22T10:54:37;19.00;96.80
40123;DHT22;25832;45.490;4.912;2024-03-22T10:57:06;19.20;96.40
40123;DHT22;25832;45.490;4.912;2024-03-22T10:59:35;19.30;96.30
40123;DHT22;25832;45.490;4.912;2024-03-22T11:02:04;19.50;95.80
40123;DHT22;25832;45.490;4.912;2024-03-22T11:04:32;19.80;93.90
40123;DHT22;25832;45.490;4.912;2024-03-22T11:06:59;19.90;94.40
40123;DHT22;25832;45.490;4.912;2024-03-22T11:09:26;20.00;92.00
40123;DHT22;25832;45.490;4.912;2024-03-22T11:11:53;20.10;92.90
40123;DHT22;25832;45.490;4.912;2024-03-22T11:14:19;20.30;92.80
40123;DHT22;25832;45.490;4.912;2024-03-22T11:16:49;20.40;91.50
40123;DHT22;25832;45.490;4.912;2024-03-22T11:19:17;20.40;90.80
40123;DHT22;25832;45.490;4.912;2024-03-22T11:21:42;20.50;90.90
40123;DHT22;25832;45.490;4.912;2024-03-22T11:24:08;20.60;88.80
40123;DHT22;25832;45.490;4.912;2024-03-22T11:26:35;20.70;90.00
40123;DHT22;25832;45.490;4.912;2024-03-22T11:29:01;20.90;90.10
40123;DHT22;25832;45.490;4.912;2024-03-22T11:31:27;21.00;88.90
40123;DHT22;25832;45.490;4.912;2024-03-22T11:33:53;21.00;82.30
40123;DHT22;25832;45.490;4.912;2024-03-22T11:36:20;21.00;83.00
40123;DHT22;25832;45.490;4.912;2024-03-22T11:38:46;21.00;77.90
40123;DHT22;25832;45.490;4.912;2024-03-22T11:41:14;21.00;80.70
40123;DHT22;25832;45.490;4.912;2024-03-22T11:43:42;21.10;79.20
40123;DHT22;25832;45.490;4.912;2024-03-22T11:46:08;21.30;79.40
40123;DHT22;25832;45.490;4.912;2024-03-22T11:48:39;21.40;80.80
40123;DHT22;25832;45.490;4.912;2024-03-22T11:51:06;21.60;82.40
40123;DHT22;25832;45.490;4.912;2024-03-22T11:53:32;21.70;77.20
40123;DHT22;25832;45.490;4.912;2024-03-22T11:55:57;21.80;78.60
40123;DHT22;25832;45.490;4.912;2024-03-22T11:58:26;21.80;76.90
40123;DHT22;25832;45.490;4.912;2024-03-22T12:00:52;21.90;78.60
40123;DHT22;25832;45.490;4.912;2024-03-22T12:03:18;22.10;77.20
40123;DHT22;25832;45.490;4.912;2024-03-22T12:05:43;22.20;77.70
40123;DHT22;25832;45.490;4.912;2024-03-22T12:08:10;22.20;78.40
40123;DHT22;25832;45.490;4.912;2024-03-22T12:10:36;22.20;76.70
40123;DHT22;25832;45.490;4.912;2024-03-22T12:13:01;22.20;77.00
40123;DHT22;25832;45.490;4.912;2024-03-22T12:15:28;22.10;77.50
40123;DHT22;25832;45.490;4.912;2024-03-22T12:17:53;22.10;77.50
40123;DHT22;25832;45.490;4.912;2024-03-22T12:20:19;22.10;75.40
40123;DHT22;25832;45.490;4.912;2024-03-22T12:22:46;22.10;78.80
40123;DHT22;25832;45.490;4.912;2024-03-22T12:25:11;22.10;77.70
40123;DHT22;25832;45.490;4.912;2024-03-22T12:27:37;22.10;77.30
40123;DHT22;25832;45.490;4.912;2024-03-22T12:30:03;22.10;78.90
40123;DHT22;25832;45.490;4.912;2024-03-22T12:32:29;22.00;77.10
40123;DHT22;25832;45.490;4.912;2024-03-22T12:34:54;21.90;76.70
40123;DHT22;25832;45.490;4.912;2024-03-22T12:37:20;21.80;77.40
40123;DHT22;25832;45.490;4.912;2024-03-22T12:39:45;21.70;77.10
40123;DHT22;25832;45.490;4.912;2024-03-22T12:42:12;21.70;71.30
40123;DHT22;25832;45.490;4.912;2024-03-22T12:44:38;21.60;71.30
40123;DHT22;25832;45.490;4.912;2024-03-22T12:47:04;21.60;74.20
40123;DHT22;25832;45.490;4.912;2024-03-22T12:49:29;21.60;74.40
40123;DHT22;25832;45.490;4.912;2024-03-22T12:51:55;21.70;68.10
40123;DHT22;25832;45.490;4.912;2024-03-22T12:54:22;21.70;69.60
40123;DHT22;25832;45.490;4.912;2024-03-22T12:56:48;21.80;70.20
40123;DHT22;25832;45.490;4.912;2024-03-22T12:59:13;21.90;67.20
40123;DHT22;25832;45.490;4.912;2024-03-22T13:01:39;21.90;69.30
40123;DHT22;25832;45.490;4.912;2024-03-22T13:04:05;22.00;71.90
40123;DHT22;25832;45.490;4.912;2024-03-22T13:06:30;21.90;71.60
40123;DHT22;25832;45.490;4.912;2024-03-22T13:08:56;21.90;70.80
40123;DHT22;25832;45.490;4.912;2024-03-22T13:11:22;21.90;71.70
40123;DHT22;25832;45.490;4.912;2024-03-22T13:13:48;22.00;70.70
40123;DHT22;25832;45.490;4.912;2024-03-22T13:16:13;22.00;69.20
40123;DHT22;25832;45.490;4.912;2024-03-22T13:18:41;22.10;72.70
40123;DHT22;25832;45.490;4.912;2024-03-22T13:21:07;22.10;70.20
40123;DHT22;25832;45.490;4.912;2024-03-22T13:23:32;22.20;73.90
40123;DHT22;25832;45.490;4.912;2024-03-22T13:26:03;22.30;70.90
40123;DHT22;25832;45.490;4.912;2024-03-22T13:28:29;22.20;72.10
40123;DHT22;25832;45.490;4.912;2024-03-22T13:31:02;22.10;70.70
40123;DHT22;25832;45.490;4.912;2024-03-22T13:33:29;22.00;72.60
40123;DHT22;25832;45.490;4.912;2024-03-22T13:35:54;22.00;74.00
40123;DHT22;25832;45.490;4.912;2024-03-22T13:38:20;22.10;73.50
40123;DHT22;25832;45.490;4.912;2024-03-22T13:40:55;22.20;69.90
40123;DHT22;25832;45.490;4.912;2024-03-22T13:43:22;22.20;68.30
40123;DHT22;25832;45.490;4.912;2024-03-22T13:45:51;22.30;69.20
40123;DHT22;25832;45.490;4.912;2024-03-22T13:48:22;22.40;68.40
40123;DHT22;25832;45.490;4.912;2024-03-22T13:50:57;22.40;70.00
40123;DHT22;25832;45.490;4.912;2024-03-22T13:53:22;22.50;72.40
40123;DHT22;25832;45.490;4.912;2024-03-22T13:55:51;22.60;71.50
40123;DHT22;25832;45.490;4.912;2024-03-22T13:58:20;22.60;71.30
40123;DHT22;25832;45.490;4.912;2024-03-22T14:00:46;22.60;71.10
40123;DHT22;25832;45.490;4.912;2024-03-22T14:03:11;22.60;72.10
40123;DHT22;25832;45.490;4.912;2024-03-22T14:05:37;22.60;70.00
40123;DHT22;25832;45.490;4.912;2024-03-22T14:08:03;22.60;71.30
40123;DHT22;25832;45.490;4.912;2024-03-22T14:10:29;22.60;70.90
40123;DHT22;25832;45.490;4.912;2024-03-22T14:12:57;22.60;70.00
40123;DHT22;25832;45.490;4.912;2024-03-22T14:15:23;22.50;68.00
40123;DHT22;25832;45.490;4.912;2024-03-22T14:17:52;22.50;69.60
40123;DHT22;25832;45.490;4.912;2024-03-22T14:20:17;22.50;73.20
40123;DHT22;25832;45.490;4.912;2024-03-22T14:22:44;22.50;70.00
40123;DHT22;25832;45.490;4.912;2024-03-22T14:25:10;22.50;70.70
40123;DHT22;25832;45.490;4.912;2024-03-22T14:27:36;22.50;72.50
40123;DHT22;25832;45.490;4.912;2024-03-22T14:30:03;22.50;69.80
40123;DHT22;25832;45.490;4.912;2024-03-22T14:32:32;22.60;66.70
40123;DHT22;25832;45.490;4.912;2024-03-22T14:34:57;22.50;68.00
40123;DHT22;25832;45.490;4.912;2024-03-22T14:37:23;22.40;68.90
40123;DHT22;25832;45.490;4.912;2024-03-22T14:39:48;22.40;65.90
40123;DHT22;25832;45.490;4.912;2024-03-22T14:42:14;22.30;68.70
40123;DHT22;25832;45.490;4.912;2024-03-22T14:44:40;22.20;68.80
40123;DHT22;25832;45.490;4.912;2024-03-22T14:47:06;22.20;66.30
40123;DHT22;25832;45.490;4.912;2024-03-22T14:49:31;22.20;66.20
40123;DHT22;25832;45.490;4.912;2024-03-22T14:51:57;22.20;63.70
40123;DHT22;25832;45.490;4.912;2024-03-22T14:54:23;22.20;65.10
40123;DHT22;25832;45.490;4.912;2024-03-22T14:56:48;22.20;64.30
40123;DHT22;25832;45.490;4.912;2024-03-22T14:59:14;22.30;60.30
40123;DHT22;25832;45.490;4.912;2024-03-22T15:01:40;22.30;62.40
40123;DHT22;25832;45.490;4.912;2024-03-22T15:04:05;22.40;63.30
40123;DHT22;25832;45.490;4.912;2024-03-22T15:06:32;22.30;59.00
40123;DHT22;25832;45.490;4.912;2024-03-22T15:08:57;22.30;60.90
40123;DHT22;25832;45.490;4.912;2024-03-22T15:11:24;22.30;59.60
40123;DHT22;25832;45.490;4.912;2024-03-22T15:13:50;22.30;63.30
40123;DHT22;25832;45.490;4.912;2024-03-22T15:16:15;22.20;64.40
40123;DHT22;25832;45.490;4.912;2024-03-22T15:18:41;22.20;61.70
40123;DHT22;25832;45.490;4.912;2024-03-22T15:21:07;22.20;65.00
40123;DHT22;25832;45.490;4.912;2024-03-22T15:23:34;22.30;60.60
40123;DHT22;25832;45.490;4.912;2024-03-22T15:25:59;22.30;60.20
40123;DHT22;25832;45.490;4.912;2024-03-22T15:28:25;22.30;60.60